Hovedside
METAR-TAF:

METAR-TAF

Lufthavner :

Björneborg, Finland

Björneborg lufthavn

breddegrad: 61-28N, lengdegrad: 021-48E, høyde over havet: 13 m

Gjeldene værobservasjon

Denne rapporten ble laget for 15 minutter siden, klokken 10:20 UTC
Vind 14 kt fra Sørvest, skiftende mellom Sør og Vest
Temperatur 16°C
Luftfuktighet 55%
Trykk 993 hPa
Sikt 10 km eller mer

METAR: EFPO 251020Z AUTO 23014KT 190V260 9999 FEW035/// 16/07 Q0993

Tid: 13:35 (10:35 UTC)


TAF: fraværende

Værobservasjoner og værvarsel for over 4000 flyplasser (METAR- og TAF-rapporter).

Tilgjengelige stasjoner er representert av de røde og gule prikkene på kartet.

Hold musepekeren over prikken for å se navnet på stasjonen.

Klikk så for å se værobservasjoner og -varsler.

For å forandre kartet kan du klikke på den grønne knappen med svart kryss for å zoome inn, på den grønne knappen med strek for å zoome ut, eller på de grønne pilene for å se tilstøtende kart.


METAR-TAF: